CheckWX is a tool to help pilots better visualize weather data.  It is not intended as a substitute for an official pre-flight weather briefing.

10:38:42 UTC

KGSH METAR
Goshen Municipal Airport
Goshen, Indiana, USA
Current

46 mins ago

KGSH 170953Z AUTO 08005KT 1/2SM FG VV002 16/16 A3016 RMK AO2 SLP207 T01610161 $
Observed
Sep-17 @ 09:53 UTC
Wind
  • 080° at 5 KTS
Visibility
1/2 SM
Flight Rules
LIFR
Conditions
Fog
Cloud Levels
  • Vertical visibility at 200' AGL
Temperature
16°C / 61°F
Dewpoint
16°C / 61°F
Humidity
100%
Altimeter
30.16" Hg
Pressure
1021.32 hPa
Previous

1 hour ago

KGSH 170936Z AUTO 00000KT 2SM BR FEW006 15/14 A3016 RMK AO2 T01500144 $
Observed
Sep-17 @ 09:36 UTC
Visibility
2 SM
Flight Rules
IFR
Conditions
Mist
Cloud Levels
  • Few at 600' AGL
Temperature
15°C / 59°F
Dewpoint
14°C / 57°F
Humidity
94%
Altimeter
30.16" Hg
Pressure
1021.32 hPa
Previous

1 hour ago

KGSH 170916Z AUTO 00000KT 1/2SM FG VV006 14/14 A3015 RMK AO2 T01390139 $
Observed
Sep-17 @ 09:16 UTC
Visibility
1/2 SM
Flight Rules
LIFR
Conditions
Fog
Cloud Levels
  • Vertical visibility at 600' AGL
Temperature
14°C / 57°F
Dewpoint
14°C / 57°F
Humidity
100%
Altimeter
30.15" Hg
Pressure
1021.02 hPa